createdAt,value
2018-03-27T00:00:56.280Z,30.87
2018-03-27T00:03:23.698Z,31.83
2018-03-27T00:05:51.053Z,33.23
2018-03-27T00:08:18.448Z,32.63
2018-03-27T00:10:45.832Z,37.23
2018-03-27T00:13:13.220Z,35.03
2018-03-27T00:15:40.605Z,36.53
2018-03-27T00:18:07.997Z,35.80
2018-03-27T00:20:35.403Z,36.00
2018-03-27T00:23:02.788Z,34.47
2018-03-27T00:25:30.179Z,36.47
2018-03-27T00:28:09.209Z,37.27
2018-03-27T00:30:48.365Z,39.07
2018-03-27T00:33:27.327Z,35.03
2018-03-27T00:36:06.512Z,37.27
2018-03-27T00:38:45.768Z,40.00
2018-03-27T00:44:26.064Z,38.57
2018-03-27T00:46:53.479Z,36.10
2018-03-27T00:49:20.864Z,36.97
2018-03-27T00:51:48.240Z,38.13
2018-03-27T00:54:15.632Z,37.13
2018-03-27T00:56:43.021Z,39.07
2018-03-27T00:59:10.408Z,41.37
2018-03-27T01:01:37.793Z,38.37
2018-03-27T01:04:05.188Z,41.03
2018-03-27T01:06:32.572Z,41.90
2018-03-27T01:08:59.954Z,43.73
2018-03-27T01:11:27.348Z,40.30
2018-03-27T01:13:56.977Z,38.40
2018-03-27T01:16:24.364Z,44.17
2018-03-27T01:18:51.744Z,41.47
2018-03-27T01:21:19.136Z,46.90
2018-03-27T01:23:46.520Z,43.53
2018-03-27T01:26:13.905Z,48.73
2018-03-27T01:28:41.301Z,41.50
2018-03-27T01:31:08.676Z,41.80
2018-03-27T01:33:36.071Z,52.43
2018-03-27T01:36:03.453Z,41.80
2018-03-27T01:38:30.837Z,48.20
2018-03-27T01:40:58.220Z,40.63
2018-03-27T01:43:25.612Z,42.97
2018-03-27T01:45:52.992Z,45.80
2018-03-27T01:48:20.375Z,41.13
2018-03-27T01:50:47.760Z,44.30
2018-03-27T01:53:15.144Z,45.57
2018-03-27T01:55:42.540Z,42.97
2018-03-27T01:58:09.920Z,46.93
2018-03-27T02:00:37.305Z,46.97
2018-03-27T02:03:04.692Z,42.13
2018-03-27T02:05:32.072Z,40.80
2018-03-27T02:07:59.452Z,42.90
2018-03-27T02:10:26.848Z,41.67
2018-03-27T02:12:59.901Z,40.43
2018-03-27T02:15:32.812Z,40.07
2018-03-27T02:18:05.864Z,42.00
2018-03-27T02:20:38.866Z,42.37
2018-03-27T02:23:12.180Z,47.57
2018-03-27T02:25:39.576Z,46.17
2018-03-27T02:28:06.963Z,51.60
2018-03-27T02:30:34.344Z,46.40
2018-03-27T02:33:01.741Z,40.47
2018-03-27T02:35:29.117Z,45.80
2018-03-27T02:37:56.533Z,48.75
2018-03-27T02:40:23.917Z,44.20
2018-03-27T02:42:51.300Z,49.90
2018-03-27T02:45:18.688Z,56.80
2018-03-27T02:47:46.087Z,45.00
2018-03-27T02:50:13.471Z,49.17
2018-03-27T02:52:40.849Z,44.50
2018-03-27T02:55:08.240Z,52.97
2018-03-27T02:57:35.628Z,48.30
2018-03-27T03:00:03.040Z,55.70
2018-03-27T03:02:30.436Z,51.63
2018-03-27T03:04:57.823Z,49.67
2018-03-27T03:07:25.216Z,50.77
2018-03-27T03:09:52.602Z,48.43
2018-03-27T03:12:19.999Z,46.65
2018-03-27T03:14:47.392Z,48.80
2018-03-27T03:17:14.781Z,46.30
2018-03-27T03:19:42.173Z,48.40
2018-03-27T03:22:09.576Z,48.78
2018-03-27T03:24:36.969Z,48.38
2018-03-27T03:27:04.361Z,51.00
2018-03-27T03:29:31.756Z,46.42
2018-03-27T03:31:59.152Z,53.40
2018-03-27T03:34:26.558Z,57.08
2018-03-27T03:36:53.942Z,60.92
2018-03-27T03:39:21.336Z,57.10
2018-03-27T03:41:48.733Z,48.58
2018-03-27T03:44:16.120Z,52.05
2018-03-27T03:46:43.520Z,49.47
2018-03-27T03:49:10.917Z,52.92
2018-03-27T03:51:38.313Z,50.42
2018-03-27T03:54:05.711Z,47.83
2018-03-27T03:56:33.104Z,54.70
2018-03-27T03:59:00.508Z,54.75
2018-03-27T04:01:27.896Z,57.10
2018-03-27T04:03:55.288Z,58.30
2018-03-27T04:06:22.689Z,57.58
2018-03-27T04:08:50.081Z,57.15
2018-03-27T04:11:17.481Z,60.38
2018-03-27T04:13:44.874Z,60.83
2018-03-27T04:16:12.270Z,53.75
2018-03-27T04:18:39.660Z,56.05
2018-03-27T04:21:07.093Z,57.03
2018-03-27T04:23:34.482Z,60.90
2018-03-27T04:26:01.895Z,51.60
2018-03-27T04:28:29.285Z,60.95
2018-03-27T04:30:56.689Z,61.85
2018-03-27T04:33:24.080Z,60.45
2018-03-27T04:35:51.468Z,57.00
2018-03-27T04:38:18.871Z,59.20
2018-03-27T04:40:46.316Z,58.20
2018-03-27T04:43:13.664Z,51.60
2018-03-27T04:45:41.061Z,53.78
2018-03-27T04:48:08.457Z,52.40
2018-03-27T04:50:35.848Z,68.78
2018-03-27T04:53:03.256Z,54.20
2018-03-27T04:55:30.647Z,54.70
2018-03-27T04:57:58.047Z,54.78
2018-03-27T05:00:25.448Z,58.92
2018-03-27T05:02:52.859Z,56.50
2018-03-27T05:05:20.233Z,54.85
2018-03-27T05:07:47.692Z,59.67
2018-03-27T05:10:15.088Z,55.33
2018-03-27T05:12:42.477Z,59.88
2018-03-27T05:15:09.877Z,56.95
2018-03-27T05:17:37.261Z,57.72
2018-03-27T05:20:04.661Z,60.67
2018-03-27T05:22:32.052Z,62.47
2018-03-27T05:24:59.436Z,59.03
2018-03-27T05:27:26.836Z,67.68
2018-03-27T05:29:54.228Z,56.90
2018-03-27T05:32:21.629Z,59.67
2018-03-27T05:34:49.020Z,63.33
2018-03-27T05:37:16.420Z,64.18
2018-03-27T05:39:43.813Z,61.70
2018-03-27T05:42:11.652Z,63.67
2018-03-27T05:44:39.146Z,65.82
2018-03-27T05:47:06.568Z,62.70
2018-03-27T05:49:33.965Z,69.30
2018-03-27T05:52:01.376Z,67.55
2018-03-27T05:54:28.768Z,66.40
2018-03-27T05:56:56.168Z,56.97
2018-03-27T05:59:23.578Z,62.90
2018-03-27T06:01:50.964Z,66.35
2018-03-27T06:04:18.359Z,59.23
2018-03-27T06:06:45.746Z,61.40
2018-03-27T06:09:13.154Z,65.15
2018-03-27T06:11:40.541Z,58.58
2018-03-27T06:14:07.981Z,63.25
2018-03-27T06:16:52.173Z,66.72
2018-03-27T06:19:19.573Z,68.82
2018-03-27T06:21:46.987Z,55.83
2018-03-27T06:24:14.369Z,65.93
2018-03-27T06:26:41.757Z,65.05
2018-03-27T06:29:09.168Z,67.00
2018-03-27T06:31:36.585Z,62.90
2018-03-27T06:34:03.971Z,64.32
2018-03-27T06:36:31.414Z,61.67
2018-03-27T06:38:58.810Z,63.23
2018-03-27T06:41:26.188Z,67.27
2018-03-27T06:43:53.577Z,63.07
2018-03-27T06:46:20.965Z,63.75
2018-03-27T06:48:48.364Z,64.20
2018-03-27T06:51:15.757Z,55.90
2018-03-27T06:53:43.161Z,59.08
2018-03-27T06:56:10.543Z,54.47
2018-03-27T06:58:37.936Z,59.27
2018-03-27T07:01:05.324Z,58.90
2018-03-27T07:03:32.750Z,60.60
2018-03-27T07:06:00.135Z,58.63
2018-03-27T07:08:27.573Z,60.45
2018-03-27T07:10:54.969Z,58.53
2018-03-27T07:13:22.401Z,57.23
2018-03-27T07:15:49.851Z,54.92
2018-03-27T07:18:17.220Z,52.80
2018-03-27T07:20:44.705Z,54.30
2018-03-27T07:23:12.072Z,58.40
2018-03-27T07:25:39.466Z,56.10
2018-03-27T07:28:06.856Z,57.73
2018-03-27T07:30:34.253Z,54.50
2018-03-27T07:33:01.623Z,53.97
2018-03-27T07:35:29.007Z,56.57
2018-03-27T07:37:56.401Z,53.03
2018-03-27T07:40:23.783Z,50.60
2018-03-27T07:42:51.172Z,60.27
2018-03-27T07:45:18.561Z,57.73
2018-03-27T07:47:45.944Z,55.60
2018-03-27T07:50:13.408Z,55.70
2018-03-27T07:52:40.792Z,54.23
2018-03-27T07:55:08.173Z,49.20
2018-03-27T07:57:35.565Z,52.60
2018-03-27T08:00:02.958Z,50.90
2018-03-27T08:02:30.345Z,54.73
2018-03-27T08:04:57.729Z,50.43
2018-03-27T08:07:25.127Z,53.80
2018-03-27T08:09:52.510Z,51.07
2018-03-27T08:12:19.905Z,57.20
2018-03-27T08:14:47.296Z,51.30
2018-03-27T08:17:14.679Z,55.10
2018-03-27T08:19:42.068Z,54.47
2018-03-27T08:22:09.465Z,53.27
2018-03-27T08:24:36.860Z,51.00
2018-03-27T08:27:04.240Z,49.47
2018-03-27T08:29:31.713Z,47.53
2018-03-27T08:31:59.114Z,52.23
2018-03-27T08:34:26.595Z,48.20
2018-03-27T08:36:54.135Z,49.83
2018-03-27T08:39:21.521Z,50.20
2018-03-27T08:41:48.912Z,50.07
2018-03-27T08:44:16.293Z,49.30
2018-03-27T08:46:43.684Z,43.87
2018-03-27T08:49:11.083Z,44.53
2018-03-27T08:51:38.472Z,40.47
2018-03-27T08:54:05.873Z,43.40
2018-03-27T08:56:33.327Z,45.87
2018-03-27T08:59:00.773Z,42.00
2018-03-27T09:01:28.196Z,46.13
2018-03-27T09:03:56.523Z,41.97
2018-03-27T09:06:23.928Z,40.33
2018-03-27T09:08:51.585Z,40.60
2018-03-27T09:11:18.961Z,41.80
2018-03-27T09:13:46.348Z,45.70
2018-03-27T09:16:14.817Z,40.50
2018-03-27T09:18:42.200Z,40.60
2018-03-27T09:21:09.585Z,36.33
2018-03-27T09:23:36.973Z,39.53
2018-03-27T09:26:04.448Z,37.50
2018-03-27T09:28:31.860Z,39.00
2018-03-27T09:30:59.236Z,39.17
2018-03-27T09:33:26.627Z,35.30
2018-03-27T09:35:54.020Z,34.13
2018-03-27T09:38:21.404Z,35.17
2018-03-27T09:40:49.523Z,34.23
2018-03-27T09:43:16.906Z,33.17
2018-03-27T09:45:44.296Z,32.80
2018-03-27T09:48:18.392Z,30.80
2018-03-27T09:50:45.775Z,28.43
2018-03-27T09:53:13.216Z,28.47
2018-03-27T09:55:40.598Z,27.10
2018-03-27T09:58:07.995Z,27.33
2018-03-27T10:00:41.026Z,27.17
2018-03-27T10:03:08.418Z,26.30
2018-03-27T10:05:35.797Z,27.67
2018-03-27T10:08:03.197Z,28.53
2018-03-27T10:10:30.577Z,23.87
2018-03-27T10:12:57.975Z,25.50
2018-03-27T10:15:25.366Z,25.90
2018-03-27T10:17:52.758Z,24.83
2018-03-27T10:20:20.149Z,24.83
2018-03-27T10:22:48.449Z,24.60
2018-03-27T10:25:15.840Z,24.20
2018-03-27T10:27:43.232Z,26.80
2018-03-27T10:30:10.625Z,25.87
2018-03-27T10:32:38.009Z,25.03
2018-03-27T10:35:05.389Z,24.90
2018-03-27T10:37:32.777Z,26.43
2018-03-27T10:40:00.164Z,27.23
2018-03-27T10:42:27.551Z,26.50
2018-03-27T10:44:54.936Z,25.77
2018-03-27T10:47:22.323Z,24.43
2018-03-27T10:49:49.744Z,23.00
2018-03-27T10:52:17.132Z,19.63
2018-03-27T10:54:44.512Z,18.70
2018-03-27T10:57:11.894Z,19.07
2018-03-27T10:59:39.282Z,18.37
2018-03-27T11:02:06.682Z,18.30
2018-03-27T11:04:34.074Z,17.37
2018-03-27T11:07:01.448Z,18.10
2018-03-27T11:09:28.830Z,19.17
2018-03-27T11:11:56.213Z,19.23
2018-03-27T11:14:23.591Z,18.17
2018-03-27T11:16:51.412Z,20.53
2018-03-27T11:19:18.797Z,22.67
2018-03-27T11:21:46.181Z,21.63
2018-03-27T11:24:13.574Z,21.50
2018-03-27T11:26:40.956Z,22.63
2018-03-27T11:29:08.353Z,20.47
2018-03-27T11:31:35.740Z,20.27
2018-03-27T11:34:03.131Z,22.00
2018-03-27T11:36:30.513Z,21.97
2018-03-27T11:38:57.896Z,20.40
2018-03-27T11:41:25.289Z,20.53
2018-03-27T11:43:52.672Z,22.30
2018-03-27T11:46:20.052Z,21.93
2018-03-27T11:48:47.449Z,21.87
2018-03-27T11:51:14.825Z,21.47
2018-03-27T11:53:42.220Z,22.03
2018-03-27T11:56:09.608Z,21.10
2018-03-27T11:58:36.995Z,23.07
2018-03-27T12:01:04.397Z,22.90
2018-03-27T12:03:31.776Z,21.87
2018-03-27T12:05:59.169Z,23.00
2018-03-27T12:08:26.552Z,23.27
2018-03-27T12:10:53.960Z,23.07
2018-03-27T12:13:21.341Z,21.80
2018-03-27T12:15:48.725Z,22.67
2018-03-27T12:18:16.113Z,22.33
2018-03-27T12:20:43.504Z,20.73
2018-03-27T12:23:10.884Z,22.30
2018-03-27T12:25:38.281Z,21.50
2018-03-27T12:28:05.660Z,22.80
2018-03-27T12:30:33.057Z,25.80
2018-03-27T12:33:00.436Z,22.60
2018-03-27T12:35:27.833Z,25.47
2018-03-27T12:37:55.216Z,24.77
2018-03-27T12:40:22.597Z,24.43
2018-03-27T12:42:49.992Z,25.80
2018-03-27T12:45:17.395Z,25.80
2018-03-27T12:47:44.810Z,26.27
2018-03-27T12:50:12.149Z,26.43
2018-03-27T12:52:39.544Z,25.67
2018-03-27T12:55:06.928Z,26.60
2018-03-27T12:57:34.913Z,27.87
2018-03-27T13:00:02.292Z,26.77
2018-03-27T13:02:29.684Z,27.83
2018-03-27T13:04:57.064Z,31.10
2018-03-27T13:07:24.452Z,27.43
2018-03-27T13:09:51.835Z,27.47
2018-03-27T13:12:19.227Z,28.97
2018-03-27T13:14:46.612Z,29.07
2018-03-27T13:17:14.000Z,25.90
2018-03-27T13:19:41.389Z,25.90
2018-03-27T13:22:08.779Z,26.73
2018-03-27T13:24:36.160Z,28.70
2018-03-27T13:27:03.548Z,28.50
2018-03-27T13:29:30.936Z,28.33
2018-03-27T13:31:58.332Z,28.53
2018-03-27T13:34:25.720Z,26.37
2018-03-27T13:36:53.116Z,28.53
2018-03-27T13:39:20.500Z,25.87
2018-03-27T13:41:47.896Z,28.33
2018-03-27T13:44:15.290Z,28.10
2018-03-27T13:46:42.895Z,23.03
2018-03-27T13:49:10.284Z,22.23
2018-03-27T13:51:37.664Z,20.37
2018-03-27T13:54:05.065Z,20.27
2018-03-27T13:56:32.448Z,21.00
2018-03-27T13:58:59.844Z,20.97
2018-03-27T14:01:27.237Z,20.83
2018-03-27T14:03:54.628Z,21.67
2018-03-27T14:06:22.017Z,20.97
2018-03-27T14:08:49.404Z,21.20
2018-03-27T14:11:16.867Z,22.33
2018-03-27T14:13:44.183Z,24.10
2018-03-27T14:16:11.572Z,22.33
2018-03-27T14:18:38.953Z,22.90
2018-03-27T14:21:06.344Z,24.00
2018-03-27T14:23:33.724Z,24.20
2018-03-27T14:26:01.116Z,24.27
2018-03-27T14:28:28.502Z,25.63
2018-03-27T14:30:55.884Z,26.07
2018-03-27T14:33:23.264Z,25.63
2018-03-27T14:35:50.648Z,26.57
2018-03-27T14:38:18.084Z,26.60
2018-03-27T14:40:45.424Z,26.20
2018-03-27T14:43:12.823Z,26.87
2018-03-27T14:45:40.197Z,28.20
2018-03-27T14:48:07.600Z,27.63
2018-03-27T14:50:34.974Z,30.00
2018-03-27T14:53:02.386Z,28.93
2018-03-27T14:55:29.765Z,30.37
2018-03-27T14:57:57.165Z,29.77
2018-03-27T15:00:24.548Z,30.40
2018-03-27T15:02:51.948Z,31.27
2018-03-27T15:05:19.337Z,31.07
2018-03-27T15:07:46.759Z,30.90
2018-03-27T15:10:14.153Z,31.17
2018-03-27T15:12:41.529Z,31.13
2018-03-27T15:15:08.916Z,30.93
2018-03-27T15:17:36.309Z,30.73
2018-03-27T15:20:03.684Z,30.83
2018-03-27T15:22:31.065Z,29.73
2018-03-27T15:24:58.456Z,30.70
2018-03-27T15:27:25.856Z,30.73
2018-03-27T15:29:53.252Z,29.67
2018-03-27T15:32:20.628Z,31.27
2018-03-27T15:34:48.029Z,30.20
2018-03-27T15:37:15.400Z,30.43
2018-03-27T15:39:42.850Z,31.07
2018-03-27T15:42:10.201Z,30.67
2018-03-27T15:44:37.596Z,32.27
2018-03-27T15:47:04.986Z,33.87
2018-03-27T15:49:32.434Z,33.00
2018-03-27T15:51:59.808Z,32.00
2018-03-27T15:54:27.204Z,37.00
2018-03-27T15:56:54.587Z,33.33
2018-03-27T15:59:21.993Z,34.10
2018-03-27T16:01:49.368Z,33.90
2018-03-27T16:04:16.760Z,33.13
2018-03-27T16:06:44.145Z,33.60
2018-03-27T16:09:11.524Z,34.07
2018-03-27T16:11:38.916Z,35.10
2018-03-27T16:14:07.199Z,35.90
2018-03-27T16:16:34.612Z,35.87
2018-03-27T16:19:02.005Z,35.03
2018-03-27T16:21:29.388Z,35.80
2018-03-27T16:23:56.769Z,36.30
2018-03-27T16:26:24.209Z,36.73
2018-03-27T16:28:51.601Z,39.03
2018-03-27T16:31:19.010Z,34.00
2018-03-27T16:33:46.405Z,33.47
2018-03-27T16:36:13.788Z,30.70
2018-03-27T16:38:41.168Z,29.73
2018-03-27T16:41:08.556Z,30.57
2018-03-27T16:43:35.930Z,31.47
2018-03-27T16:46:03.324Z,29.03
2018-03-27T16:48:30.701Z,28.33
2018-03-27T16:50:58.085Z,27.90
2018-03-27T16:53:25.479Z,27.87
2018-03-27T16:55:52.849Z,27.43
2018-03-27T16:58:20.243Z,26.97
2018-03-27T17:00:47.695Z,27.13
2018-03-27T17:03:15.081Z,24.90
2018-03-27T17:05:42.458Z,26.00
2018-03-27T17:08:09.868Z,26.70
2018-03-27T17:10:38.272Z,26.23
2018-03-27T17:13:05.716Z,27.63
2018-03-27T17:15:33.789Z,27.20
2018-03-27T17:18:01.331Z,26.80
2018-03-27T17:20:29.728Z,25.00
2018-03-27T17:22:57.116Z,27.07
2018-03-27T17:25:24.503Z,26.23
2018-03-27T17:27:51.898Z,26.47
2018-03-27T17:30:19.268Z,26.10
2018-03-27T17:32:46.644Z,26.57
2018-03-27T17:35:14.136Z,28.60
2018-03-27T17:37:41.510Z,30.40
2018-03-27T17:40:08.912Z,31.40
2018-03-27T17:42:36.291Z,29.63
2018-03-27T17:45:03.714Z,33.33
2018-03-27T17:47:31.126Z,30.30
2018-03-27T17:49:58.476Z,31.87
2018-03-27T17:52:25.853Z,33.47
2018-03-27T17:54:54.137Z,32.57
2018-03-27T17:57:21.540Z,32.87
2018-03-27T17:59:50.096Z,33.63
2018-03-27T18:02:17.513Z,34.63
2018-03-27T18:04:44.904Z,33.40
2018-03-27T18:07:12.328Z,35.47
2018-03-27T18:09:40.396Z,35.80
2018-03-27T18:12:07.784Z,36.73
2018-03-27T18:14:35.278Z,37.57
2018-03-27T18:17:02.733Z,37.43
2018-03-27T18:19:31.077Z,37.40
2018-03-27T18:21:58.457Z,37.43
2018-03-27T18:24:26.272Z,40.27
2018-03-27T18:26:53.899Z,40.77
2018-03-27T18:29:21.388Z,40.33
2018-03-27T18:31:48.928Z,42.30
2018-03-27T18:34:17.504Z,43.03
2018-03-27T18:36:44.894Z,45.63
2018-03-27T18:39:12.341Z,42.53
2018-03-27T18:41:39.733Z,44.70
2018-03-27T18:44:07.148Z,44.83
2018-03-27T18:46:34.543Z,44.47
2018-03-27T18:49:01.996Z,43.00
2018-03-27T18:51:29.377Z,42.93
2018-03-27T18:53:56.801Z,44.13
2018-03-27T18:56:24.263Z,43.27
2018-03-27T18:58:51.712Z,44.10
2018-03-27T19:01:19.089Z,44.40
2018-03-27T19:03:46.477Z,44.67
2018-03-27T19:06:13.862Z,45.00
2018-03-27T19:08:41.265Z,44.17
2018-03-27T19:11:08.645Z,42.73
2018-03-27T19:13:36.048Z,46.07
2018-03-27T19:16:03.522Z,48.10
2018-03-27T19:18:30.859Z,45.30
2018-03-27T19:20:58.240Z,43.43
2018-03-27T19:23:25.741Z,42.73
2018-03-27T19:25:53.162Z,41.67
2018-03-27T19:28:20.925Z,43.30
2018-03-27T19:30:48.303Z,45.80
2018-03-27T19:33:15.677Z,44.27
2018-03-27T19:35:43.065Z,44.60
2018-03-27T19:38:10.436Z,43.57
2018-03-27T19:40:37.826Z,43.53
2018-03-27T19:43:05.200Z,43.47
2018-03-27T19:45:32.586Z,43.27
2018-03-27T19:47:59.964Z,41.47
2018-03-27T19:50:27.348Z,41.43
2018-03-27T19:52:54.724Z,40.90
2018-03-27T19:55:22.110Z,43.67
2018-03-27T19:57:49.486Z,41.87
2018-03-27T20:00:16.876Z,43.87
2018-03-27T20:02:44.254Z,43.40
2018-03-27T20:05:11.640Z,44.83
2018-03-27T20:07:39.030Z,47.37
2018-03-27T20:10:06.409Z,43.30
2018-03-27T20:12:33.792Z,44.60
2018-03-27T20:15:01.168Z,43.73
2018-03-27T20:17:28.558Z,44.20
2018-03-27T20:19:55.943Z,42.93
2018-03-27T20:22:23.333Z,45.50
2018-03-27T20:24:50.725Z,45.17
2018-03-27T20:27:18.155Z,44.90
2018-03-27T20:29:45.488Z,46.73
2018-03-27T20:32:12.868Z,42.97
2018-03-27T20:34:40.249Z,40.50
2018-03-27T20:37:07.637Z,44.03
2018-03-27T20:39:35.021Z,40.47
2018-03-27T20:42:02.400Z,41.77
2018-03-27T20:44:29.777Z,40.73
2018-03-27T20:46:57.179Z,40.13
2018-03-27T20:49:24.540Z,39.23
2018-03-27T20:51:51.935Z,39.97
2018-03-27T20:54:19.312Z,39.83
2018-03-27T20:56:46.750Z,39.93
2018-03-27T20:59:14.087Z,41.43
2018-03-27T21:01:41.460Z,39.33
2018-03-27T21:04:08.851Z,36.33
2018-03-27T21:06:36.220Z,38.37
2018-03-27T21:09:03.620Z,40.43
2018-03-27T21:11:30.996Z,38.80
2018-03-27T21:13:58.380Z,38.97
2018-03-27T21:16:25.763Z,39.37
2018-03-27T21:18:53.152Z,37.37
2018-03-27T21:21:20.545Z,38.60
2018-03-27T21:23:47.933Z,39.43
2018-03-27T21:26:15.309Z,37.50
2018-03-27T21:28:42.700Z,39.03
2018-03-27T21:31:10.084Z,39.77
2018-03-27T21:33:37.456Z,38.10
2018-03-27T21:36:04.844Z,39.07
2018-03-27T21:38:32.245Z,39.13
2018-03-27T21:40:59.630Z,40.17
2018-03-27T21:43:27.012Z,39.20
2018-03-27T21:45:54.401Z,40.67
2018-03-27T21:48:21.786Z,36.80
2018-03-27T21:50:49.173Z,37.63
2018-03-27T21:53:16.552Z,37.70
2018-03-27T21:55:43.943Z,39.90
2018-03-27T21:58:11.363Z,38.57
2018-03-27T22:00:38.722Z,38.13
2018-03-27T22:03:06.101Z,37.67
2018-03-27T22:05:33.492Z,38.00
2018-03-27T22:08:00.871Z,36.40
2018-03-27T22:10:28.272Z,36.70
2018-03-27T22:12:55.656Z,37.97
2018-03-27T22:15:23.040Z,36.70
2018-03-27T22:17:50.420Z,36.47
2018-03-27T22:20:17.797Z,35.00
2018-03-27T22:22:45.183Z,35.30
2018-03-27T22:25:12.560Z,35.37
2018-03-27T22:27:39.944Z,34.53
2018-03-27T22:30:07.325Z,36.13
2018-03-27T22:32:34.716Z,35.80
2018-03-27T22:35:02.088Z,34.87
2018-03-27T22:37:29.477Z,35.03
2018-03-27T22:39:56.869Z,33.87
2018-03-27T22:42:24.244Z,33.80
2018-03-27T22:44:51.628Z,35.07
2018-03-27T22:47:19.017Z,34.37
2018-03-27T22:49:46.397Z,35.73
2018-03-27T22:52:13.783Z,34.63
2018-03-27T22:54:41.174Z,35.37
2018-03-27T22:57:08.545Z,35.17
2018-03-27T22:59:35.924Z,33.33
2018-03-27T23:02:03.304Z,35.00
2018-03-27T23:04:30.692Z,34.07
2018-03-27T23:06:58.071Z,34.50
2018-03-27T23:09:25.676Z,35.57
2018-03-27T23:11:53.291Z,36.40
2018-03-27T23:14:20.672Z,35.13
2018-03-27T23:16:48.063Z,33.60
2018-03-27T23:19:15.445Z,34.97
2018-03-27T23:21:42.820Z,35.20
2018-03-27T23:24:10.210Z,35.97
2018-03-27T23:26:37.591Z,34.97
2018-03-27T23:29:04.972Z,36.30
2018-03-27T23:31:32.348Z,36.80
2018-03-27T23:33:59.736Z,36.70
2018-03-27T23:36:27.112Z,36.83
2018-03-27T23:38:54.491Z,38.87
2018-03-27T23:41:21.888Z,39.77
2018-03-27T23:43:49.269Z,37.70
2018-03-27T23:46:16.663Z,36.97
2018-03-27T23:48:44.036Z,40.03
2018-03-27T23:51:11.429Z,41.00
2018-03-27T23:53:38.803Z,37.07
2018-03-27T23:56:06.187Z,39.77
2018-03-27T23:58:33.561Z,39.43
